Weather at Dalton

Public forecast

Using degrees Celsius for public forecast. Weather courtesy of forecast.io.

Closest aviation weather report (METAR) to Dalton

Report is more than 6 hours old.

Closest report is Haifa International Airport, 24.8 nm (45.9 km) WSW.

2024/05/27 15:50 (retrieved 10 hours ago)

LLHA 271550Z 24009KT 200V280 9999 SCT020 25/20 Q1009

Closest aviation forecast (TAF) to Dalton

Forecast is more than 6 hours old.

Closest forecast is Erbil International Airport, 461.9 nm (855.4 km) ENE.

2024/05/27 18:03 (retrieved 8 hours ago)

TAF ORER 271700Z 2718/2818 23004KT 8000 NSC BECMG 2720/2722 VRB02KT